Time;durP1;ratioP1;P1;durP2;ratioP2;P2;SDS_P1;SDS_P2;PMS_P1;PMS_P2;Temp;Humidity;BMP_temperature;BMP_pressure;BME280_temperature;BME280_humidity;BME280_pressure;Samples;Min_cycle;Max_cycle;Signal;HPM_P1;HPM_P2
2022/03/18 00:00:20;;;;;;;27.27;7.65;;;;;;;-13.17;49.63;98195.06;6374240;27;20047;-64
2022/03/18 00:03:24;;;;;;;24.52;7.60;;;;;;;-13.08;50.50;98191.25;6376270;27;20062;-64
2022/03/18 00:06:25;;;;;;;37.38;10.55;;;;;;;-13.19;50.35;98206.81;6374508;27;20043;-63
2022/03/18 00:09:30;;;;;;;34.65;9.27;;;;;;;-13.27;50.35;98203.06;6355937;27;20043;-64
2022/03/18 00:12:32;;;;;;;11.20;5.15;;;;;;;-13.28;50.43;98201.31;6374770;27;20532;-63
2022/03/18 00:15:33;;;;;;;43.38;9.80;;;;;;;-13.23;50.15;98189.72;6373851;27;20419;-64
2022/03/18 00:18:40;;;;;;;45.22;9.85;;;;;;;-13.24;50.03;98200.66;6374575;27;20493;-64
2022/03/18 00:21:42;;;;;;;24.63;7.90;;;;;;;-13.19;50.66;98195.78;6374646;27;20035;-63
2022/03/18 00:24:48;;;;;;;39.78;10.25;;;;;;;-13.27;50.59;98205.59;6374486;27;20122;-64
2022/03/18 00:27:50;;;;;;;24.52;8.35;;;;;;;-13.37;49.94;98201.72;6373458;27;20104;-63
2022/03/18 00:30:54;;;;;;;27.55;7.57;;;;;;;-13.36;50.34;98207.66;6355498;27;20059;-64
2022/03/18 00:33:55;;;;;;;21.02;6.47;;;;;;;-13.42;50.01;98203.16;6373431;27;20051;-63
2022/03/18 00:37:01;;;;;;;20.02;6.65;;;;;;;-13.42;50.54;98203.16;6372950;27;20043;-64
2022/03/18 00:40:05;;;;;;;23.00;6.95;;;;;;;-13.50;50.26;98213.69;6372688;27;20055;-64
2022/03/18 00:43:06;;;;;;;21.67;6.60;;;;;;;-13.57;50.40;98202.41;6373247;27;20508;-64
2022/03/18 00:46:08;;;;;;;28.25;7.45;;;;;;;-13.63;50.57;98207.16;6371960;27;20058;-63
2022/03/18 00:52:29;;;;;;;26.42;6.57;;;;;;;-13.68;50.57;98211.97;6372766;27;20135;-64
2022/03/18 00:55:30;;;;;;;24.42;7.55;;;;;;;-13.74;50.93;98204.06;6373566;27;20042;-64
2022/03/18 00:58:31;;;;;;;18.23;7.00;;;;;;;-13.95;50.76;98177.66;6372540;27;20053;-64
2022/03/18 01:01:36;;;;;;;11.32;5.45;;;;;;;-13.77;50.58;98208.97;6373012;27;20397;-64
2022/03/18 01:04:37;;;;;;;10.15;4.40;;;;;;;-13.79;50.34;98210.56;6373288;27;20035;-63
2022/03/18 01:07:41;;;;;;;10.32;3.70;;;;;;;-13.76;50.63;98210.72;6373366;27;20523;-64
2022/03/18 01:10:42;;;;;;;8.32;3.50;;;;;;;-13.77;50.20;98218.25;6372223;27;20051;-64
2022/03/18 01:13:46;;;;;;;9.82;3.10;;;;;;;-13.84;50.36;98217.94;6371940;27;20057;-64
2022/03/18 01:16:50;;;;;;;11.32;3.78;;;;;;;-13.82;50.16;98228.09;6373186;27;20458;-64
2022/03/18 01:19:51;;;;;;;13.43;4.00;;;;;;;-13.87;50.02;98227.00;6372306;27;20416;-63
2022/03/18 01:22:53;;;;;;;10.65;4.32;;;;;;;-13.85;50.31;98231.34;6372486;27;20059;-63
2022/03/18 01:25:58;;;;;;;5.22;3.15;;;;;;;-13.99;50.62;98219.66;6372824;27;20555;-63
2022/03/18 01:29:02;;;;;;;5.35;2.22;;;;;;;-13.82;50.77;98235.69;6371959;27;20191;-64
2022/03/18 01:32:03;;;;;;;9.02;3.45;;;;;;;-13.88;50.43;98250.56;6372487;27;20043;-64
2022/03/18 01:35:08;;;;;;;6.57;3.80;;;;;;;-13.96;50.38;98241.69;6372664;27;20488;-64
2022/03/18 01:38:14;;;;;;;7.53;3.53;;;;;;;-14.03;50.77;98254.03;6371456;27;20053;-64
2022/03/18 01:41:15;;;;;;;10.30;3.50;;;;;;;-14.10;50.65;98254.47;6371527;27;20049;-65
2022/03/18 01:44:18;;;;;;;11.40;4.60;;;;;;;-14.15;50.83;98255.91;6372264;27;20039;-64
2022/03/18 01:47:19;;;;;;;15.20;4.13;;;;;;;-14.20;50.73;98262.38;6372332;27;20046;-64
2022/03/18 01:50:22;;;;;;;8.02;3.42;;;;;;;-14.28;51.10;98263.63;6372379;27;20556;-64
2022/03/18 01:53:25;;;;;;;9.75;4.40;;;;;;;-14.33;51.28;98262.50;6372312;27;20051;-65
2022/03/18 01:56:27;;;;;;;13.52;4.57;;;;;;;-14.40;51.81;98246.16;6372168;27;20035;-64
2022/03/18 01:59:32;;;;;;;11.68;4.15;;;;;;;-14.45;51.29;98250.06;6371960;27;20039;-64
2022/03/18 02:02:36;;;;;;;12.75;4.85;;;;;;;-14.48;51.79;98260.88;6370944;27;20062;-64
2022/03/18 02:05:41;;;;;;;17.67;5.28;;;;;;;-14.41;51.93;98271.31;6372010;27;20046;-64
2022/03/18 02:08:45;;;;;;;23.52;6.20;;;;;;;-14.41;51.83;98267.13;6371305;27;20050;-64
2022/03/18 02:11:49;;;;;;;14.93;5.43;;;;;;;-14.47;52.11;98267.66;6371029;27;20051;-64
2022/03/18 02:14:55;;;;;;;17.23;5.80;;;;;;;-14.49;51.89;98278.47;6371942;27;20059;-64
2022/03/18 02:17:59;;;;;;;30.80;6.50;;;;;;;-14.43;52.26;98290.59;6371428;27;20046;-64
2022/03/18 02:21:00;;;;;;;21.27;5.97;;;;;;;-14.36;52.10;98282.56;6371801;27;20039;-64
2022/03/18 02:24:05;;;;;;;15.32;4.90;;;;;;;-14.28;51.79;98293.97;6371393;27;20039;-65
2022/03/18 02:27:06;;;;;;;16.60;5.75;;;;;;;-14.22;52.04;98291.75;6370564;27;20046;-64
2022/03/18 02:30:09;;;;;;;15.55;6.05;;;;;;;-14.14;52.13;98298.13;6371312;27;20129;-64
2022/03/18 02:33:11;;;;;;;20.57;6.17;;;;;;;-14.05;52.30;98306.19;6370040;27;20043;-63
2022/03/18 02:36:15;;;;;;;22.25;7.78;;;;;;;-14.03;52.10;98306.28;6371360;27;20043;-64
2022/03/18 02:39:18;;;;;;;;;;;;;;;-13.92;52.27;98314.47;6371669;27;20465;-63
2022/03/18 02:42:19;;;;;;;22.20;6.97;;;;;;;-13.91;51.49;98314.53;6370219;27;20055;-65
2022/03/18 02:45:30;;;;;;;25.02;7.32;;;;;;;-13.90;51.02;98316.25;6371164;28;20043;-64
2022/03/18 02:48:37;;;;;;;22.45;6.72;;;;;;;-13.84;51.09;98320.75;6371204;28;20133;-62
2022/03/18 02:51:41;;;;;;;20.23;7.45;;;;;;;-13.79;51.53;98321.88;6371065;28;20039;-64
2022/03/18 02:54:43;;;;;;;25.27;7.35;;;;;;;-13.75;51.94;98313.69;6370024;28;20519;-63
2022/03/18 02:57:44;;;;;;;22.38;8.55;;;;;;;-13.70;52.09;98324.94;6370649;28;20047;-64
2022/03/18 03:00:48;;;;;;;24.48;8.07;;;;;;;-13.63;52.72;98321.91;6370106;28;20416;-64
2022/03/18 03:03:49;;;;;;;22.45;8.02;;;;;;;-13.53;52.19;98322.38;6369870;28;20429;-64
2022/03/18 03:10:13;;;;;;;23.95;8.90;;;;;;;-13.32;52.18;98323.50;6374008;27;20496;-64
2022/03/18 03:13:14;;;;;;;;;;;;;;;-13.19;53.16;98328.38;6375297;27;20050;-64
2022/03/18 03:16:19;;;;;;;20.52;7.53;;;;;;;-13.12;50.84;98335.47;6374884;27;19920;-64
2022/03/18 03:19:26;;;;;;;32.28;8.18;;;;;;;-12.85;51.71;98335.13;6375597;27;20039;-64
2022/03/18 03:22:29;;;;;;;29.00;8.27;;;;;;;-12.71;51.55;98334.16;6382310;27;20496;-64
2022/03/18 03:25:31;;;;;;;25.98;6.85;;;;;;;-12.54;51.44;98334.09;6374508;27;20043;-64
2022/03/18 03:28:34;;;;;;;;;;;;;;;-12.33;50.61;98345.28;6375932;27;20047;-64
2022/03/18 03:31:41;;;;;;;9.55;3.90;;;;;;;-12.18;51.95;98342.59;6375534;27;20011;-64
2022/03/18 03:34:45;;;;;;;8.90;4.30;;;;;;;-12.03;51.38;98355.13;6375227;27;20039;-64
2022/03/18 03:37:48;;;;;;;;;;;;;;;-11.89;51.10;98351.56;6376804;27;20031;-64
2022/03/18 03:40:52;;;;;;;5.97;3.22;;;;;;;-11.80;50.75;98356.19;6375012;27;20041;-63
2022/03/18 03:43:54;;;;;;;5.15;2.78;;;;;;;-11.69;50.60;98354.13;6339333;27;20450;-64
2022/03/18 03:47:00;;;;;;;8.90;4.00;;;;;;;-11.60;50.72;98357.97;6374998;27;20101;-64
2022/03/18 03:50:01;;;;;;;5.78;3.00;;;;;;;-11.44;50.57;98362.06;6374772;27;20041;-63
2022/03/18 03:53:07;;;;;;;4.65;2.97;;;;;;;-11.33;50.42;98360.88;6374762;27;20039;-64
2022/03/18 03:56:08;;;;;;;7.78;3.60;;;;;;;-11.12;50.53;98370.28;6374273;27;20053;-63
2022/03/18 03:59:12;;;;;;;4.20;2.58;;;;;;;-11.00;50.69;98375.88;6374734;27;20038;-65
2022/03/18 04:02:13;;;;;;;8.70;3.72;;;;;;;-10.90;50.44;98367.84;6373654;27;20047;-64
2022/03/18 04:05:18;;;;;;;11.07;4.53;;;;;;;-10.75;50.27;98372.72;6373452;27;20054;-64
2022/03/18 04:08:19;;;;;;;10.10;3.90;;;;;;;-10.62;50.28;98379.19;6373877;27;20529;-63
2022/03/18 04:11:23;;;;;;;9.65;4.10;;;;;;;-10.46;50.35;98381.56;6374311;27;20129;-64
2022/03/18 04:14:27;;;;;;;11.32;4.28;;;;;;;-10.36;50.38;98380.25;6374430;27;20492;-65
2022/03/18 04:17:51;;;;;;;9.43;4.05;;;;;;;-10.18;50.24;98380.13;6373407;27;20172;-64
2022/03/18 04:20:52;;;;;;;;;;;;;;;-10.05;49.45;98384.88;6355197;27;20039;-64
2022/03/18 04:23:59;;;;;;;11.57;4.20;;;;;;;-9.99;49.66;98369.88;6355102;27;19919;-64
2022/03/18 04:27:03;;;;;;;12.55;4.13;;;;;;;-9.78;49.51;98379.16;6374288;27;20051;-64
2022/03/18 04:30:10;;;;;;;10.50;5.25;;;;;;;-9.64;49.47;98387.34;6373520;27;20051;-64
2022/03/18 04:33:11;;;;;;;9.38;4.60;;;;;;;-9.49;49.30;98388.78;6373057;27;20533;-64
2022/03/18 04:36:12;;;;;;;12.63;4.60;;;;;;;-9.34;48.91;98379.97;6373324;27;20039;-63
2022/03/18 04:39:14;;;;;;;10.88;5.32;;;;;;;-9.19;48.94;98388.19;6372938;27;20062;-64
2022/03/18 04:42:18;;;;;;;9.75;4.57;;;;;;;-9.01;49.03;98387.13;6374072;27;20477;-63
2022/03/18 04:45:25;;;;;;;13.73;5.88;;;;;;;-8.89;48.59;98383.34;6374065;27;20039;-63
2022/03/18 04:48:26;;;;;;;22.60;8.98;;;;;;;-8.74;48.63;98388.13;6372745;27;20047;-63
2022/03/18 04:51:30;;;;;;;11.13;5.57;;;;;;;-8.56;48.51;98392.13;6373699;27;20125;-63
2022/03/18 04:54:36;;;;;;;7.75;4.35;;;;;;;-8.39;48.27;98391.88;6374188;27;20050;-64
2022/03/18 04:57:38;;;;;;;12.93;4.68;;;;;;;-8.28;47.95;98389.66;6372357;27;20062;-63
2022/03/18 05:00:39;;;;;;;10.20;4.25;;;;;;;-8.04;47.64;98398.94;6372282;27;20419;-64
2022/03/18 05:03:40;;;;;;;6.35;3.15;;;;;;;-7.85;47.44;98393.59;6372649;27;20047;-63
2022/03/18 05:06:41;;;;;;;11.93;4.60;;;;;;;-7.65;47.42;98394.22;6372676;27;20050;-64
2022/03/18 05:09:46;;;;;;;12.60;4.47;;;;;;;-7.37;47.09;98398.50;6373366;27;20504;-63
2022/03/18 05:12:48;;;;;;;12.27;4.88;;;;;;;-7.01;46.11;98405.53;6371926;27;20073;-64
2022/03/18 05:15:49;;;;;;;14.23;5.68;;;;;;;-6.71;46.24;98412.31;6373135;27;20043;-63
2022/03/18 05:18:53;;;;;;;9.18;4.47;;;;;;;-6.49;45.87;98406.97;6372243;27;20130;-62
2022/03/18 05:21:59;;;;;;;11.38;4.47;;;;;;;-6.20;45.60;98404.28;6373083;27;20500;-62
2022/03/18 05:25:01;;;;;;;7.68;4.55;;;;;;;-5.99;45.50;98402.28;6371690;27;20516;-64
2022/03/18 05:28:02;;;;;;;10.00;4.57;;;;;;;-5.88;45.04;98412.78;6371824;27;20043;-64
2022/03/18 05:31:03;;;;;;;15.50;6.40;;;;;;;-5.73;45.54;98417.41;6372049;27;20051;-64
2022/03/18 05:34:08;;;;;;;13.90;6.00;;;;;;;-5.71;45.69;98418.31;6371884;27;20515;-64
2022/03/18 05:37:10;;;;;;;13.73;5.03;;;;;;;-5.68;45.31;98410.69;6372703;27;20043;-63
2022/03/18 05:40:14;;;;;;;18.75;6.90;;;;;;;-5.70;45.36;98381.56;6371678;27;20050;-64
2022/03/18 05:43:16;;;;;;;27.38;10.88;;;;;;;-5.30;44.98;98409.00;6371431;27;20047;-64
2022/03/18 05:46:17;;;;;;;23.77;9.80;;;;;;;-5.02;44.57;98425.88;6371347;27;20103;-64
2022/03/18 05:49:22;;;;;;;18.80;7.60;;;;;;;-1.16;39.95;98430.44;6371274;27;20070;-64
2022/03/18 05:52:24;;;;;;;17.65;6.38;;;;;;;4.50;31.56;98429.63;6371402;27;20062;-64
2022/03/18 05:56:52;;;;;;;14.07;6.47;;;;;;;8.97;24.89;98438.84;6371854;27;20035;-64
2022/03/18 05:58:56;;;;;;;15.15;7.63;;;;;;;12.68;22.28;98451.00;6371762;27;20126;-64
2022/03/18 06:02:02;;;;;;;21.90;7.28;;;;;;;15.21;20.09;98450.84;6372088;27;20051;-64
2022/03/18 06:05:08;;;;;;;25.02;7.60;;;;;;;17.05;18.12;98444.75;6371737;27;20047;-63
2022/03/18 06:11:49;;;;;;;23.40;10.05;;;;;;;20.16;15.07;98454.25;6371758;27;20058;-64
2022/03/18 06:14:54;;;;;;;20.67;10.27;;;;;;;21.40;13.90;98462.09;6371663;27;20043;-64
2022/03/18 06:18:01;;;;;;;18.42;9.05;;;;;;;23.00;12.40;98458.94;6371669;27;20047;-64
2022/03/18 06:21:12;;;;;;;17.90;7.40;;;;;;;23.97;10.96;98461.59;6371461;27;20511;-64
2022/03/18 06:24:19;;;;;;;13.07;7.05;;;;;;;24.69;10.98;98464.63;6353125;27;20051;-63
2022/03/18 06:27:21;;;;;;;14.20;5.93;;;;;;;25.46;10.31;98465.97;6371272;27;20411;-63
2022/03/18 06:30:25;;;;;;;18.27;10.20;;;;;;;25.81;9.02;98462.34;6371200;27;20042;-64
2022/03/18 06:33:29;;;;;;;18.27;8.88;;;;;;;26.49;9.14;98466.16;6371291;27;20556;-65
2022/03/18 06:36:31;;;;;;;12.77;6.45;;;;;;;26.71;8.88;98471.03;6370217;27;20172;-63
2022/03/18 06:39:33;;;;;;;16.38;6.82;;;;;;;27.61;8.18;98473.94;6370098;27;20516;-63
2022/03/18 06:42:36;;;;;;;13.23;6.47;;;;;;;28.48;7.73;98474.22;6370617;27;20133;-64
2022/03/18 06:45:41;;;;;;;11.48;6.20;;;;;;;29.20;7.48;98470.50;6370595;27;20042;-63
2022/03/18 06:48:43;;;;;;;12.20;4.60;;;;;;;29.63;7.00;98476.34;6370391;28;20051;-63
2022/03/18 06:51:47;;;;;;;11.50;4.95;;;;;;;29.93;7.06;98478.09;6370068;28;20504;-64
2022/03/18 06:54:50;;;;;;;12.75;6.72;;;;;;;30.29;6.62;98482.88;6370782;28;20039;-64
2022/03/18 06:57:52;;;;;;;17.95;7.68;;;;;;;30.40;6.56;98482.44;6369699;28;20043;-64
2022/03/18 07:00:55;;;;;;;21.98;10.00;;;;;;;30.11;6.79;98479.63;6370962;28;20091;-65
2022/03/18 07:04:02;;;;;;;20.63;11.30;;;;;;;30.05;6.75;98483.09;6370801;28;20080;-64
2022/03/18 07:07:08;;;;;;;18.48;10.15;;;;;;;29.89;6.45;98486.78;6371010;28;20039;-63
2022/03/18 07:10:12;;;;;;;15.40;8.38;;;;;;;30.37;6.29;98490.09;6370745;28;20122;-63
2022/03/18 07:13:16;;;;;;;17.42;8.25;;;;;;;30.05;6.24;98483.09;6352912;28;20144;-64
2022/03/18 07:19:38;;;;;;;21.75;11.23;;;;;;;30.46;6.29;98479.97;6369645;28;20427;-65
2022/03/18 07:22:44;;;;;;;19.98;12.02;;;;;;;30.40;5.97;98485.13;6370871;28;20450;-64
2022/03/18 07:25:48;;;;;;;21.23;10.25;;;;;;;30.75;6.16;98492.72;6370078;28;20046;-63
2022/03/18 07:28:57;;;;;;;12.50;7.05;;;;;;;30.78;6.05;98485.03;6370814;28;20047;-65
2022/03/18 07:31:59;;;;;;;11.48;5.63;;;;;;;31.27;5.98;98487.09;6369686;28;20058;-63
2022/03/18 07:35:04;;;;;;;16.45;5.43;;;;;;;31.63;6.08;98490.84;6370289;28;20377;-63
2022/03/18 07:38:11;;;;;;;20.05;7.15;;;;;;;32.31;5.43;98488.50;6370729;28;20047;-63
2022/03/18 07:41:18;;;;;;;13.25;6.28;;;;;;;31.85;5.51;98494.38;6369539;28;20047;-64
2022/03/18 07:44:22;;;;;;;18.60;6.22;;;;;;;31.26;5.85;98493.56;6369508;28;20055;-64
2022/03/18 07:47:26;;;;;;;13.02;6.68;;;;;;;31.43;5.75;98498.81;6369826;28;20047;-63
2022/03/18 07:50:32;;;;;;;14.07;5.90;;;;;;;31.29;5.99;98490.47;6368248;28;20044;-64
2022/03/18 07:53:36;;;;;;;17.15;7.47;;;;;;;29.77;6.38;98483.69;6370372;28;20040;-64
2022/03/18 07:56:38;;;;;;;13.30;6.30;;;;;;;30.12;6.54;98484.03;6374195;27;20554;-63
2022/03/18 07:59:42;;;;;;;12.70;6.28;;;;;;;30.46;6.18;98483.56;6375054;27;20526;-63
2022/03/18 08:02:50;;;;;;;14.68;6.20;;;;;;;30.53;6.26;98489.06;6373456;27;20188;-64
2022/03/18 08:05:55;;;;;;;13.20;5.45;;;;;;;30.39;6.34;98478.00;6374754;27;20073;-64
2022/03/18 08:09:02;;;;;;;7.93;4.10;;;;;;;30.19;6.18;98482.28;6356659;27;20424;-64
2022/03/18 08:12:06;;;;;;;5.15;3.08;;;;;;;30.51;6.23;98472.09;6374256;27;20552;-63
2022/03/18 08:15:12;;;;;;;8.45;3.92;;;;;;;30.62;6.09;98471.63;6372974;27;20054;-64
2022/03/18 08:18:16;;;;;;;5.25;3.20;;;;;;;31.01;6.07;98470.50;6374569;27;20050;-64
2022/03/18 08:21:18;;;;;;;5.50;2.73;;;;;;;31.32;5.66;98462.88;6374460;27;20031;-64
2022/03/18 08:24:19;;;;;;;6.00;2.85;;;;;;;31.08;5.75;98465.94;6373217;27;20514;-63
2022/03/18 08:27:25;;;;;;;5.18;2.95;;;;;;;31.00;5.69;98474.25;6373607;27;20047;-64
2022/03/18 08:30:29;;;;;;;7.65;2.72;;;;;;;31.66;5.76;98474.97;6374365;27;20500;-64
2022/03/18 08:33:36;;;;;;;4.15;2.60;;;;;;;29.93;6.32;98461.81;6373065;27;20382;-64
2022/03/18 08:36:43;;;;;;;4.78;2.40;;;;;;;29.95;6.64;98470.63;6373352;27;20047;-64
2022/03/18 08:39:44;;;;;;;5.88;2.83;;;;;;;29.00;6.66;98460.09;6373939;27;20039;-65
2022/03/18 08:42:52;;;;;;;5.45;3.17;;;;;;;28.73;6.74;98457.84;6373966;27;20042;-65
2022/03/18 08:46:03;;;;;;;5.22;2.90;;;;;;;28.96;6.67;98463.31;6373914;27;20492;-64
2022/03/18 08:49:07;;;;;;;4.53;2.55;;;;;;;29.13;6.72;98467.69;6373090;27;20046;-64
2022/03/18 08:52:11;;;;;;;4.72;2.78;;;;;;;29.36;6.75;98470.41;6373803;27;20050;-64
2022/03/18 08:55:18;;;;;;;7.85;3.72;;;;;;;29.81;6.05;98466.03;6373578;27;20039;-62
2022/03/18 08:58:22;;;;;;;9.68;5.90;;;;;;;29.87;6.20;98462.56;6373583;27;20043;-64
2022/03/18 09:01:25;;;;;;;15.68;8.60;;;;;;;30.29;6.52;98465.72;6372751;27;20040;-65
2022/03/18 09:04:28;;;;;;;13.63;8.77;;;;;;;30.33;6.53;98462.47;6372408;27;20054;-63
2022/03/18 09:07:39;;;;;;;14.23;8.50;;;;;;;30.48;6.35;98464.34;6372478;27;20104;-63
2022/03/18 09:10:48;;;;;;;10.95;7.88;;;;;;;31.00;5.86;98466.94;6372910;27;20047;-64
2022/03/18 09:13:49;;;;;;;8.85;5.00;;;;;;;29.31;6.77;98461.97;6372131;27;20047;-64
2022/03/18 09:16:50;;;;;;;6.35;3.50;;;;;;;29.83;6.36;98455.81;6372062;27;20047;-64
2022/03/18 09:19:52;;;;;;;8.15;4.15;;;;;;;30.51;6.13;98458.53;6372064;27;20455;-65
2022/03/18 09:22:56;;;;;;;8.02;4.03;;;;;;;30.16;6.69;98472.63;6372021;27;20055;-64
2022/03/18 09:25:58;;;;;;;12.45;6.47;;;;;;;29.09;6.93;98472.59;6372005;27;20070;-64
2022/03/18 09:29:01;;;;;;;10.85;5.82;;;;;;;28.93;6.59;98474.53;6371971;27;20050;-64
2022/03/18 09:32:05;;;;;;;7.22;4.40;;;;;;;29.30;6.67;98468.44;6372619;27;20120;-65
2022/03/18 09:35:07;;;;;;;5.72;4.50;;;;;;;29.39;6.34;98463.78;6372205;27;20062;-63
2022/03/18 09:38:14;;;;;;;7.72;5.13;;;;;;;29.72;6.45;98470.69;6371226;27;20512;-64
2022/03/18 09:41:16;;;;;;;8.00;5.80;;;;;;;30.02;6.59;98468.00;6371219;27;20511;-64
2022/03/18 09:44:18;;;;;;;10.23;4.97;;;;;;;30.08;6.44;98466.44;6371447;27;20053;-64
2022/03/18 09:47:22;;;;;;;10.90;7.10;;;;;;;29.35;6.82;98463.28;6370938;27;20051;-64
2022/03/18 09:50:27;;;;;;;10.02;6.28;;;;;;;28.67;7.04;98470.25;6371993;27;20142;-65
2022/03/18 09:53:35;;;;;;;13.95;8.63;;;;;;;28.00;7.16;98473.28;6372156;27;20050;-65
2022/03/18 09:56:47;;;;;;;7.72;5.43;;;;;;;25.78;8.18;98473.47;6370839;27;20051;-65
2022/03/18 09:59:52;;;;;;;8.63;5.90;;;;;;;25.68;8.16;98467.34;6371420;27;20047;-64
2022/03/18 10:03:13;;;;;;;6.40;4.80;;;;;;;26.81;8.07;98468.22;6371157;27;20058;-65
2022/03/18 10:06:26;;;;;;;9.27;6.05;;;;;;;27.36;7.47;98475.78;6370858;27;20199;-64
2022/03/18 10:09:30;;;;;;;12.23;6.72;;;;;;;27.70;7.22;98478.34;6370447;27;20058;-64
2022/03/18 10:12:33;;;;;;;11.50;8.00;;;;;;;27.27;7.68;98466.81;6370169;27;20047;-64
2022/03/18 10:15:34;;;;;;;;;;;;;;;28.57;7.15;98486.72;6372042;27;20046;-64
2022/03/18 10:18:49;;;;;;;14.15;8.40;;;;;;;27.17;7.74;98481.50;6352471;27;19919;-65
2022/03/18 10:21:55;;;;;;;12.63;7.15;;;;;;;26.43;7.98;98479.31;6371690;27;20412;-65
2022/03/18 10:24:56;;;;;;;13.00;7.40;;;;;;;25.85;8.18;98479.13;6370764;27;20056;-64
2022/03/18 10:28:03;;;;;;;13.35;6.93;;;;;;;26.06;8.51;98470.66;6371312;27;20035;-65
2022/03/18 10:31:18;;;;;;;10.60;7.65;;;;;;;25.89;8.49;98473.25;6370392;27;20092;-64
2022/03/18 10:37:47;;;;;;;15.82;10.07;;;;;;;22.80;10.12;98468.75;6370446;27;20408;-65
2022/03/18 10:40:53;;;;;;;14.18;9.43;;;;;;;20.96;11.51;98466.59;6371202;27;20054;-63
2022/03/18 10:43:55;;;;;;;14.95;9.55;;;;;;;21.47;11.13;98460.59;6370271;27;20078;-64
2022/03/18 10:46:57;;;;;;;14.75;8.95;;;;;;;22.42;10.50;98460.47;6370217;27;20089;-65
2022/03/18 10:50:00;;;;;;;15.90;8.52;;;;;;;22.79;10.18;98465.22;6371080;28;20043;-65
2022/03/18 10:53:07;;;;;;;;;;;;;;;23.60;9.75;98459.66;6370485;28;20053;-64
2022/03/18 10:56:08;;;;;;;;;;;;;;;23.81;9.29;98464.03;6370571;28;19927;-64
2022/03/18 10:59:17;;;;;;;12.88;8.05;;;;;;;22.53;9.90;98461.31;6370444;28;20384;-65
2022/03/18 11:02:20;;;;;;;12.02;7.80;;;;;;;21.83;10.11;98455.75;6370194;28;20508;-65
2022/03/18 11:05:27;;;;;;;12.38;7.13;;;;;;;21.34;10.36;98446.47;6370783;28;20041;-64
2022/03/18 11:08:59;;;;;;;16.75;8.07;;;;;;;20.77;10.60;98455.69;6352854;28;20047;-66
2022/03/18 11:12:01;;;;;;;12.30;7.88;;;;;;;19.94;11.43;98451.56;6367009;28;20055;-65
2022/03/18 11:15:04;;;;;;;;;;;;;;;20.89;10.78;98451.16;6371136;28;20062;-64
2022/03/18 11:18:11;;;;;;;12.52;8.10;;;;;;;20.69;10.82;98458.97;6370285;28;19916;-65
2022/03/18 11:21:17;;;;;;;15.07;8.18;;;;;;;20.56;10.91;98456.47;6369874;28;20049;-64
2022/03/18 11:24:23;;;;;;;15.52;8.65;;;;;;;19.88;12.17;98460.06;6370469;28;20050;-65
2022/03/18 11:27:28;;;;;;;18.55;9.02;;;;;;;19.60;11.66;98475.50;6369265;28;20115;-66
2022/03/18 11:30:36;;;;;;;15.13;9.45;;;;;;;19.45;12.23;98468.66;6372602;27;20036;-64
2022/03/18 11:33:38;;;;;;;13.77;8.20;;;;;;;19.17;12.16;98470.75;6374426;27;20538;-64
2022/03/18 11:37:05;;;;;;;17.58;8.90;;;;;;;18.71;12.39;98467.88;6375369;27;20047;-64
2022/03/18 11:40:23;;;;;;;11.68;7.38;;;;;;;18.42;12.55;98470.00;6374596;27;20116;-64
2022/03/18 11:43:33;;;;;;;9.02;6.43;;;;;;;18.13;12.76;98483.56;6374869;27;20065;-65
2022/03/18 11:46:37;;;;;;;8.48;5.15;;;;;;;17.75;12.88;98479.06;6374880;27;20042;-64
2022/03/18 11:49:43;;;;;;;8.75;6.15;;;;;;;17.41;13.25;98475.16;6373785;27;20050;-65
2022/03/18 11:52:57;;;;;;;6.45;4.47;;;;;;;17.08;13.57;98473.78;6374699;27;20035;-65
2022/03/18 11:56:22;;;;;;;8.82;6.05;;;;;;;16.74;13.56;98475.13;6374397;27;20043;-64
2022/03/18 12:02:35;;;;;;;11.27;6.88;;;;;;;15.92;14.49;98469.59;6374872;27;20041;-63
2022/03/18 12:05:54;;;;;;;9.43;6.05;;;;;;;15.63;14.56;98471.31;6373526;27;20047;-64
2022/03/18 12:08:59;;;;;;;15.93;7.00;;;;;;;15.18;15.51;98473.09;6373666;27;20043;-64
2022/03/18 12:12:14;;;;;;;11.82;7.78;;;;;;;14.71;15.64;98470.50;6373070;27;20092;-65
2022/03/18 12:15:21;;;;;;;12.63;7.50;;;;;;;14.11;15.85;98465.81;6374357;27;20412;-65
2022/03/18 12:18:33;;;;;;;6.95;4.97;;;;;;;12.89;16.66;98457.91;6374327;27;20412;-65
2022/03/18 12:21:42;;;;;;;6.32;4.50;;;;;;;11.95;17.92;98457.97;6374090;27;20046;-65
2022/03/18 12:24:52;;;;;;;5.35;4.30;;;;;;;11.49;18.20;98471.34;6373753;27;20051;-65
2022/03/18 12:27:57;;;;;;;6.15;4.10;;;;;;;11.27;18.32;98473.19;6356077;27;20125;-64
2022/03/18 12:31:13;;;;;;;3.45;2.42;;;;;;;10.38;19.67;98463.59;6373902;27;20114;-66
2022/03/18 12:34:19;;;;;;;6.65;3.88;;;;;;;9.17;20.46;98467.06;6355377;27;20053;-66
2022/03/18 12:37:31;;;;;;;6.95;3.80;;;;;;;8.44;20.99;98459.78;6356035;27;20121;-65
2022/03/18 12:40:38;;;;;;;7.03;3.80;;;;;;;8.33;21.68;98467.09;6373425;27;20050;-66
2022/03/18 12:43:46;;;;;;;5.28;4.05;;;;;;;8.27;21.84;98472.53;6372097;27;20058;-66
2022/03/18 12:47:07;;;;;;;6.45;4.07;;;;;;;7.94;21.95;98475.22;6372857;27;20043;-66
2022/03/18 12:50:09;;;;;;;6.07;3.92;;;;;;;7.47;22.18;98479.16;6372624;27;20051;-64
2022/03/18 12:53:16;;;;;;;7.15;3.95;;;;;;;6.48;23.52;98483.31;6373423;27;20047;-64
2022/03/18 12:56:22;;;;;;;5.15;3.80;;;;;;;5.73;24.86;98464.84;6373385;27;20039;-65
2022/03/18 12:59:29;;;;;;;5.45;3.92;;;;;;;5.66;25.15;98484.13;6373380;27;20039;-64
2022/03/18 13:02:31;;;;;;;5.60;4.25;;;;;;;5.47;25.50;98478.41;6372504;27;20039;-65
2022/03/18 13:05:32;;;;;;;7.65;4.22;;;;;;;5.46;25.51;98481.91;6354022;27;20428;-65
2022/03/18 13:08:36;;;;;;;7.00;3.88;;;;;;;5.30;25.59;98486.56;6372696;27;20043;-64
2022/03/18 13:11:41;;;;;;;6.38;4.13;;;;;;;4.74;26.63;98490.97;6372014;27;20047;-64
2022/03/18 13:14:45;;;;;;;5.50;3.47;;;;;;;4.20;27.00;98489.16;6354650;27;20133;-64
2022/03/18 13:17:49;;;;;;;7.10;3.97;;;;;;;3.95;27.43;98488.59;6373097;27;20043;-65
2022/03/18 13:21:00;;;;;;;8.57;5.15;;;;;;;3.89;28.52;98482.63;6372900;27;20138;-64
2022/03/18 13:24:04;;;;;;;6.80;4.43;;;;;;;3.90;27.77;98490.41;6372109;27;20066;-65
2022/03/18 13:27:09;;;;;;;8.10;4.75;;;;;;;3.66;27.79;98498.50;6372450;27;20043;-66
2022/03/18 13:33:42;;;;;;;9.88;5.38;;;;;;;2.78;29.06;98504.53;6371835;27;20046;-65
2022/03/18 13:36:46;;;;;;;6.30;4.55;;;;;;;2.50;29.19;98493.47;6372418;27;20043;-64
2022/03/18 13:40:24;;;;;;;7.18;5.32;;;;;;;2.12;29.30;98497.13;6372421;27;20039;-65
2022/03/18 13:43:34;;;;;;;8.73;5.43;;;;;;;1.53;31.37;98517.28;6372313;27;20047;-65
2022/03/18 13:46:40;;;;;;;8.57;5.35;;;;;;;1.19;32.11;98506.13;6371544;27;20054;-65
2022/03/18 13:50:00;;;;;;;7.63;5.32;;;;;;;1.03;31.83;98509.59;6372102;27;20099;-64
2022/03/18 13:53:20;;;;;;;8.07;5.55;;;;;;;0.76;32.51;98511.28;6372087;27;20043;-65
2022/03/18 13:56:24;;;;;;;7.75;5.15;;;;;;;0.42;32.85;98513.84;6371345;27;20099;-64
2022/03/18 13:59:30;;;;;;;7.82;5.07;;;;;;;0.35;33.23;98530.25;6371863;27;20057;-65
2022/03/18 14:02:35;;;;;;;8.48;5.35;;;;;;;0.14;33.01;98532.78;6371778;27;20035;-64
2022/03/18 14:05:44;;;;;;;10.77;5.75;;;;;;;-0.29;34.33;98535.19;6371374;27;20492;-65
2022/03/18 14:08:52;;;;;;;11.70;6.38;;;;;;;-0.72;34.78;98534.94;6371969;27;20035;-64
2022/03/18 14:12:11;;;;;;;14.00;6.50;;;;;;;-0.97;35.93;98542.50;6371744;27;20055;-65
2022/03/18 14:15:18;;;;;;;9.25;4.95;;;;;;;-1.13;35.44;98536.38;6371223;27;20047;-65
2022/03/18 14:18:22;;;;;;;11.45;6.53;;;;;;;-1.23;35.24;98538.84;6353105;27;20118;-65
2022/03/18 14:21:26;;;;;;;13.93;7.13;;;;;;;-1.33;35.57;98549.94;6353185;27;20409;-65
2022/03/18 14:24:31;;;;;;;13.27;7.13;;;;;;;-1.42;35.65;98551.59;6371294;27;20035;-64
2022/03/18 14:27:52;;;;;;;11.32;5.95;;;;;;;-1.52;36.11;98549.78;6353624;27;20064;-64
2022/03/18 14:31:00;;;;;;;10.27;6.35;;;;;;;-1.64;36.55;98554.84;6352678;27;20519;-65
2022/03/18 14:34:06;;;;;;;12.63;7.82;;;;;;;-1.79;36.54;98554.66;6371243;27;20038;-65
2022/03/18 14:37:12;;;;;;;14.95;7.85;;;;;;;-1.85;36.85;98546.00;6371120;27;20043;-65
2022/03/18 14:40:18;;;;;;;13.18;8.32;;;;;;;-1.90;36.89;98542.47;6353257;27;20130;-65
2022/03/18 14:43:24;;;;;;;15.52;7.82;;;;;;;-2.09;36.92;98546.59;6370981;27;20043;-64
2022/03/18 14:46:30;;;;;;;13.00;7.97;;;;;;;-2.37;37.36;98541.94;6371309;27;20047;-65
2022/03/18 14:49:35;;;;;;;10.50;6.13;;;;;;;-2.71;37.90;98549.19;6371221;28;20043;-64
2022/03/18 14:52:39;;;;;;;11.30;6.35;;;;;;;-3.09;38.97;98546.00;6371320;28;20043;-65